createdAt,value
2022-10-19T00:01:18.766Z,101119.30
2022-10-19T00:06:25.034Z,101114.40
2022-10-19T00:08:54.251Z,101110.55
2022-10-19T00:11:23.558Z,101111.45
2022-10-19T00:13:52.651Z,101110.15
2022-10-19T00:16:24.943Z,101112.96
2022-10-19T00:18:57.286Z,101112.11
2022-10-19T00:21:25.985Z,101111.14
2022-10-19T00:23:54.844Z,101110.77
2022-10-19T00:26:23.817Z,101113.60
2022-10-19T00:28:54.006Z,101116.02
2022-10-19T00:31:22.614Z,101119.98
2022-10-19T00:33:51.542Z,101118.55
2022-10-19T00:36:21.634Z,101115.69
2022-10-19T00:38:50.565Z,101116.23
2022-10-19T00:41:20.114Z,101116.36
2022-10-19T00:43:57.350Z,101116.44
2022-10-19T00:46:26.957Z,101113.95
2022-10-19T00:49:00.277Z,101113.59
2022-10-19T00:51:30.318Z,101110.02
2022-10-19T00:53:59.029Z,101109.48
2022-10-19T00:56:27.630Z,101111.02
2022-10-19T00:58:56.319Z,101110.14
2022-10-19T01:01:26.070Z,101114.91
2022-10-19T01:03:54.538Z,101115.35
2022-10-19T01:06:25.515Z,101111.06
2022-10-19T01:08:54.196Z,101106.39
2022-10-19T01:11:45.151Z,101104.86
2022-10-19T01:14:25.419Z,101102.23
2022-10-19T01:17:01.995Z,101097.48
2022-10-19T01:19:49.796Z,101098.54
2022-10-19T01:22:27.703Z,101094.56
2022-10-19T01:25:02.017Z,101099.42
2022-10-19T01:27:44.722Z,101095.94
2022-10-19T01:30:16.866Z,101093.79
2022-10-19T01:33:03.965Z,101087.80
2022-10-19T01:35:36.027Z,101082.66
2022-10-19T01:38:15.944Z,101079.35
2022-10-19T01:40:51.367Z,101075.67
2022-10-19T01:43:25.441Z,101074.36
2022-10-19T01:45:53.573Z,101073.45
2022-10-19T01:48:25.553Z,101068.04
2022-10-19T01:50:57.631Z,101062.27
2022-10-19T01:53:27.819Z,101062.61
2022-10-19T01:55:56.562Z,101068.37
2022-10-19T01:58:28.545Z,101064.85
2022-10-19T02:01:00.128Z,101064.88
2022-10-19T02:03:29.488Z,101059.88
2022-10-19T02:05:59.009Z,101060.14
2022-10-19T02:08:30.627Z,101055.77
2022-10-19T02:10:59.724Z,101055.29
2022-10-19T02:13:29.126Z,101048.52
2022-10-19T02:15:59.784Z,101050.48
2022-10-19T02:18:30.944Z,101051.40
2022-10-19T02:21:01.273Z,101045.92
2022-10-19T02:23:29.927Z,101045.11
2022-10-19T02:25:58.734Z,101049.02
2022-10-19T02:28:27.646Z,101045.98
2022-10-19T02:30:56.133Z,101044.73
2022-10-19T02:33:24.720Z,101041.36
2022-10-19T02:35:53.283Z,101038.36
2022-10-19T02:38:23.305Z,101040.64
2022-10-19T02:40:57.601Z,101035.27
2022-10-19T02:43:27.201Z,101027.65
2022-10-19T02:45:59.209Z,101036.11
2022-10-19T02:48:29.657Z,101028.67
2022-10-19T02:50:57.994Z,101036.83
2022-10-19T02:53:26.398Z,101033.14
2022-10-19T02:55:54.732Z,101030.87
2022-10-19T02:58:23.114Z,101035.96
2022-10-19T03:00:51.558Z,101039.66
2022-10-19T03:03:19.869Z,101039.47
2022-10-19T03:05:48.202Z,101032.09
2022-10-19T03:08:16.576Z,101036.09
2022-10-19T03:10:47.369Z,101029.40
2022-10-19T03:13:15.739Z,101032.97
2022-10-19T03:15:44.114Z,101030.68
2022-10-19T03:18:12.656Z,101023.27
2022-10-19T03:20:41.128Z,101028.83
2022-10-19T03:23:09.587Z,101024.91
2022-10-19T03:25:37.913Z,101026.35
2022-10-19T03:28:06.198Z,101022.39
2022-10-19T03:30:34.502Z,101026.34
2022-10-19T03:33:02.796Z,101023.77
2022-10-19T03:35:31.162Z,101018.63
2022-10-19T03:37:59.655Z,101016.10
2022-10-19T03:40:28.361Z,101016.86
2022-10-19T03:42:56.634Z,101013.45
2022-10-19T03:45:24.962Z,101016.95
2022-10-19T03:47:53.462Z,101020.44
2022-10-19T03:50:22.008Z,101017.79
2022-10-19T03:52:50.503Z,101014.70
2022-10-19T03:55:19.087Z,101009.88
2022-10-19T03:57:47.313Z,101011.55
2022-10-19T04:00:16.735Z,101009.34
2022-10-19T04:02:45.081Z,101009.48
2022-10-19T04:05:13.491Z,101009.52
2022-10-19T04:07:42.118Z,101013.17
2022-10-19T04:10:11.076Z,101008.46
2022-10-19T04:12:39.413Z,101011.76
2022-10-19T04:15:10.001Z,101010.06
2022-10-19T04:17:38.265Z,101005.89
2022-10-19T04:20:09.219Z,101006.92
2022-10-19T04:22:37.502Z,101003.05
2022-10-19T04:25:08.822Z,101005.21
2022-10-19T04:27:37.340Z,101007.19
2022-10-19T04:30:08.119Z,101000.65
2022-10-19T04:32:36.542Z,101003.48
2022-10-19T04:35:07.379Z,100999.17
2022-10-19T04:37:36.200Z,101000.91
2022-10-19T04:40:11.495Z,100999.64
2022-10-19T04:42:43.450Z,100998.84
2022-10-19T04:45:12.922Z,100993.23
2022-10-19T04:47:41.202Z,100992.40
2022-10-19T04:50:10.727Z,100989.64
2022-10-19T04:52:39.222Z,100986.67
2022-10-19T04:55:08.627Z,100988.71
2022-10-19T04:57:37.191Z,100985.34
2022-10-19T05:00:08.680Z,100983.44
2022-10-19T05:02:37.160Z,100983.05
2022-10-19T05:05:07.639Z,100979.78
2022-10-19T05:07:36.405Z,100976.83
2022-10-19T05:10:06.481Z,100975.05
2022-10-19T05:12:36.056Z,100971.27
2022-10-19T05:15:05.717Z,100974.67
2022-10-19T05:17:34.644Z,100976.96
2022-10-19T05:20:03.505Z,100971.84
2022-10-19T05:22:31.982Z,100978.30
2022-10-19T05:25:00.242Z,100981.70
2022-10-19T05:27:28.874Z,100985.63
2022-10-19T05:29:57.439Z,100983.35
2022-10-19T05:32:26.762Z,100980.56
2022-10-19T05:34:55.776Z,100981.98
2022-10-19T05:37:25.254Z,100983.80
2022-10-19T05:39:55.413Z,100986.84
2022-10-19T05:42:23.895Z,100984.58
2022-10-19T05:44:52.411Z,100980.40
2022-10-19T05:47:20.732Z,100980.66
2022-10-19T05:49:49.484Z,100983.52
2022-10-19T05:52:18.034Z,100988.20
2022-10-19T05:54:46.399Z,100987.79
2022-10-19T05:57:14.913Z,100984.13
2022-10-19T05:59:43.285Z,100986.00
2022-10-19T06:02:14.819Z,100984.05
2022-10-19T06:04:43.196Z,100985.55
2022-10-19T06:07:11.521Z,100977.42
2022-10-19T06:09:39.907Z,100984.77
2022-10-19T06:12:08.657Z,100977.88
2022-10-19T06:14:37.002Z,100976.96
2022-10-19T06:17:06.188Z,100977.39
2022-10-19T06:19:34.691Z,100981.23
2022-10-19T06:22:03.010Z,100981.16
2022-10-19T06:24:31.691Z,100977.59
2022-10-19T06:27:00.094Z,100978.20
2022-10-19T06:29:28.674Z,100979.23
2022-10-19T06:31:59.623Z,100980.06
2022-10-19T06:34:27.959Z,100982.32
2022-10-19T06:36:56.619Z,100980.95
2022-10-19T06:39:24.933Z,100983.91
2022-10-19T06:41:53.357Z,100988.48
2022-10-19T06:44:21.985Z,100987.66
2022-10-19T06:46:50.552Z,100989.50
2022-10-19T06:49:19.152Z,100984.38
2022-10-19T06:51:47.529Z,100987.52
2022-10-19T06:54:15.890Z,100989.05
2022-10-19T06:56:44.355Z,100985.97
2022-10-19T06:59:14.740Z,100981.35
2022-10-19T07:01:43.799Z,100981.33
2022-10-19T07:04:12.226Z,100982.70
2022-10-19T07:06:40.919Z,100984.14
2022-10-19T07:09:09.369Z,100985.25
2022-10-19T07:11:38.882Z,100992.96
2022-10-19T07:14:10.136Z,100987.77
2022-10-19T07:16:38.597Z,100991.75
2022-10-19T07:19:07.296Z,100993.33
2022-10-19T07:21:41.379Z,100997.85
2022-10-19T07:24:08.792Z,100993.70
2022-10-19T07:26:37.349Z,100988.60
2022-10-19T07:29:05.771Z,100986.84
2022-10-19T07:31:34.339Z,100983.81
2022-10-19T07:34:04.339Z,100991.11
2022-10-19T07:36:34.699Z,100991.41
2022-10-19T07:39:04.877Z,100998.53
2022-10-19T07:41:34.139Z,100991.73
2022-10-19T07:44:03.280Z,100997.08
2022-10-19T07:46:33.389Z,100993.13
2022-10-19T07:49:02.587Z,100994.88
2022-10-19T07:51:31.053Z,101002.93
2022-10-19T07:53:59.638Z,101008.23
2022-10-19T07:56:28.585Z,101003.63
2022-10-19T07:58:58.395Z,100996.03
2022-10-19T08:01:28.578Z,100996.77
2022-10-19T08:04:48.997Z,101002.08
2022-10-19T08:06:47.603Z,100999.85
2022-10-19T08:09:40.210Z,100999.64
2022-10-19T08:12:12.349Z,101000.29
2022-10-19T08:14:43.663Z,100994.05
2022-10-19T08:17:16.003Z,100998.05
2022-10-19T08:19:44.723Z,100994.80
2022-10-19T08:22:13.393Z,100989.87
2022-10-19T08:24:42.151Z,100991.57
2022-10-19T08:27:10.835Z,100989.02
2022-10-19T08:29:39.342Z,100994.69
2022-10-19T08:32:07.790Z,100989.06
2022-10-19T08:34:36.412Z,100990.65
2022-10-19T08:37:14.638Z,100987.09
2022-10-19T08:39:53.546Z,100994.59
2022-10-19T08:42:24.793Z,100993.25
2022-10-19T08:45:37.845Z,100991.54
2022-10-19T08:48:20.515Z,100992.23
2022-10-19T08:50:49.658Z,100990.65
2022-10-19T08:53:24.312Z,100992.05
2022-10-19T08:56:04.572Z,100990.55
2022-10-19T08:58:46.139Z,100997.50
2022-10-19T09:01:20.682Z,100990.33
2022-10-19T09:03:55.856Z,100996.64
2022-10-19T09:06:27.853Z,101002.39
2022-10-19T09:08:57.647Z,101002.90
2022-10-19T09:11:30.557Z,101002.94
2022-10-19T09:14:06.117Z,101002.42
2022-10-19T09:16:35.033Z,101006.30
2022-10-19T09:19:05.553Z,101006.85
2022-10-19T09:21:47.063Z,101011.48
2022-10-19T09:24:28.459Z,101007.52
2022-10-19T09:26:59.635Z,101012.29
2022-10-19T09:29:31.480Z,101015.77
2022-10-19T09:32:01.593Z,101018.92
2022-10-19T09:34:33.632Z,101017.17
2022-10-19T09:37:02.091Z,101018.34
2022-10-19T09:39:31.477Z,101024.97
2022-10-19T09:42:05.141Z,101024.09
2022-10-19T09:44:33.637Z,101021.82
2022-10-19T09:47:15.695Z,101024.73
2022-10-19T09:49:45.612Z,101023.48
2022-10-19T09:52:27.658Z,101027.59
2022-10-19T09:55:02.490Z,101023.27
2022-10-19T09:57:31.476Z,101025.70
2022-10-19T10:00:00.557Z,101045.39
2022-10-19T10:02:33.578Z,101057.55
2022-10-19T10:05:07.232Z,101062.02
2022-10-19T10:07:37.602Z,101069.30
2022-10-19T10:10:15.253Z,101077.40
2022-10-19T10:12:44.336Z,101073.73
2022-10-19T10:15:17.643Z,101077.38
2022-10-19T10:17:51.392Z,101077.96
2022-10-19T10:20:23.666Z,101075.81
2022-10-19T10:23:01.999Z,101082.79
2022-10-19T10:25:32.672Z,101077.58
2022-10-19T10:28:04.363Z,101073.55
2022-10-19T10:30:35.809Z,101070.69
2022-10-19T10:33:13.449Z,101071.02
2022-10-19T10:35:57.475Z,101070.94
2022-10-19T10:38:28.331Z,101062.64
2022-10-19T10:41:00.316Z,101059.65
2022-10-19T10:43:32.176Z,101062.55
2022-10-19T10:46:06.947Z,101063.66
2022-10-19T10:48:39.041Z,101065.07
2022-10-19T10:51:20.237Z,101061.43
2022-10-19T10:53:49.553Z,101065.64
2022-10-19T10:56:25.061Z,101066.80
2022-10-19T10:58:58.717Z,101061.63
2022-10-19T11:01:32.041Z,101061.73
2022-10-19T11:04:04.730Z,101065.83
2022-10-19T11:06:39.546Z,101065.32
2022-10-19T11:09:26.107Z,101067.22
2022-10-19T11:11:56.973Z,101069.54
2022-10-19T11:14:32.721Z,101071.26
2022-10-19T11:17:06.217Z,101067.11
2022-10-19T11:19:37.553Z,101062.46
2022-10-19T11:22:16.430Z,101064.40
2022-10-19T11:24:55.227Z,101063.88
2022-10-19T11:27:34.559Z,101065.14
2022-10-19T11:30:10.202Z,101069.20
2022-10-19T11:32:48.927Z,101066.11
2022-10-19T11:35:42.209Z,101063.66
2022-10-19T11:38:28.715Z,101068.12
2022-10-19T11:41:22.339Z,101065.63
2022-10-19T11:44:10.915Z,101068.20
2022-10-19T11:46:45.161Z,101065.75
2022-10-19T11:49:22.022Z,101062.41
2022-10-19T11:51:57.228Z,101066.67
2022-10-19T11:54:38.605Z,101068.44
2022-10-19T11:57:13.660Z,101066.58
2022-10-19T11:59:52.395Z,101062.63
2022-10-19T12:02:38.887Z,101067.68
2022-10-19T12:05:07.777Z,101069.91
2022-10-19T12:07:53.516Z,101072.55
2022-10-19T12:10:27.681Z,101074.39
2022-10-19T12:12:58.391Z,101079.73
2022-10-19T12:15:30.790Z,101080.20
2022-10-19T12:18:05.218Z,101082.20
2022-10-19T12:20:37.640Z,101081.12
2022-10-19T12:23:17.337Z,101086.51
2022-10-19T12:25:46.641Z,101086.85
2022-10-19T12:28:21.192Z,101089.82
2022-10-19T12:30:50.056Z,101089.30
2022-10-19T12:33:22.841Z,101087.64
2022-10-19T12:35:58.255Z,101091.86
2022-10-19T12:38:40.984Z,101092.15
2022-10-19T12:41:20.550Z,101094.77
2022-10-19T12:43:59.006Z,101100.90
2022-10-19T12:46:33.832Z,101097.42
2022-10-19T12:49:43.361Z,101096.52
2022-10-19T12:52:12.182Z,101090.20
2022-10-19T12:54:42.519Z,101096.01
2022-10-19T12:57:26.098Z,101095.77
2022-10-19T13:00:04.831Z,101096.68
2022-10-19T13:02:35.741Z,101090.85
2022-10-19T13:05:05.965Z,101090.34
2022-10-19T13:07:35.958Z,101092.23
2022-10-19T13:10:09.036Z,101095.91
2022-10-19T13:12:45.083Z,101094.41
2022-10-19T13:15:55.148Z,101096.73
2022-10-19T13:19:07.160Z,101096.34
2022-10-19T13:21:49.288Z,101099.61
2022-10-19T13:24:36.528Z,101101.28
2022-10-19T13:27:38.179Z,101102.89
2022-10-19T13:30:45.552Z,101109.14
2022-10-19T13:33:42.671Z,101126.11
2022-10-19T13:36:11.710Z,101133.86
2022-10-19T13:38:40.672Z,101140.89
2022-10-19T13:41:16.090Z,101144.08
2022-10-19T13:44:03.295Z,101150.65
2022-10-19T13:46:53.947Z,101149.54
2022-10-19T13:49:36.355Z,101152.11
2022-10-19T13:52:22.727Z,101155.39
2022-10-19T13:55:08.762Z,101156.39
2022-10-19T13:57:50.170Z,101160.02
2022-10-19T14:00:22.726Z,101167.67
2022-10-19T14:03:03.604Z,101167.61
2022-10-19T14:05:56.059Z,101169.04
2022-10-19T14:09:01.625Z,101172.47
2022-10-19T14:11:33.190Z,101174.55
2022-10-19T14:14:16.626Z,101179.20
2022-10-19T14:16:57.220Z,101184.44
2022-10-19T14:19:30.775Z,101185.85
2022-10-19T14:22:18.593Z,101191.42
2022-10-19T14:24:48.820Z,101193.27
2022-10-19T14:27:19.274Z,101200.40
2022-10-19T14:29:50.267Z,101196.55
2022-10-19T14:32:21.048Z,101202.95
2022-10-19T14:34:49.835Z,101207.90
2022-10-19T14:37:20.370Z,101216.63
2022-10-19T14:40:00.669Z,101212.49
2022-10-19T14:42:40.977Z,101213.81
2022-10-19T14:45:18.346Z,101209.14
2022-10-19T14:48:01.399Z,101214.31
2022-10-19T14:53:30.194Z,101216.85
2022-10-19T14:56:01.290Z,101222.07
2022-10-19T14:58:37.415Z,101230.87
2022-10-19T15:01:06.813Z,101234.64
2022-10-19T15:03:36.618Z,101236.52
2022-10-19T15:06:08.491Z,101237.69
2022-10-19T15:08:41.834Z,101233.23
2022-10-19T15:11:22.849Z,101237.42
2022-10-19T15:13:58.637Z,101239.30
2022-10-19T15:16:32.543Z,101236.13
2022-10-19T15:19:07.610Z,101243.29
2022-10-19T15:21:36.769Z,101245.63
2022-10-19T15:24:15.867Z,101243.79
2022-10-19T15:27:01.762Z,101250.27
2022-10-19T15:29:37.039Z,101253.77
2022-10-19T15:32:18.403Z,101257.31
2022-10-19T15:34:47.235Z,101261.64
2022-10-19T15:37:20.488Z,101265.45
2022-10-19T15:39:52.271Z,101268.34
2022-10-19T15:42:33.685Z,101264.80
2022-10-19T15:45:05.068Z,101271.38
2022-10-19T15:47:34.446Z,101275.59
2022-10-19T15:50:03.406Z,101284.29
2022-10-19T15:52:34.029Z,101287.46
2022-10-19T15:55:04.693Z,101292.66
2022-10-19T15:57:35.255Z,101296.13
2022-10-19T16:00:12.767Z,101302.16
2022-10-19T16:02:41.222Z,101307.15
2022-10-19T16:05:10.797Z,101308.77
2022-10-19T16:07:41.004Z,101311.30
2022-10-19T16:10:15.395Z,101317.98
2022-10-19T16:12:44.403Z,101318.89
2022-10-19T16:15:15.795Z,101327.21
2022-10-19T16:17:44.796Z,101325.64
2022-10-19T16:20:13.832Z,101326.91
2022-10-19T16:22:42.630Z,101334.48
2022-10-19T16:25:13.619Z,101341.14
2022-10-19T16:27:42.274Z,101347.69
2022-10-19T16:30:12.946Z,101347.20
2022-10-19T16:35:12.412Z,101353.79
2022-10-19T16:37:40.798Z,101354.83
2022-10-19T16:40:11.384Z,101357.48
2022-10-19T16:42:40.465Z,101355.81
2022-10-19T16:45:12.993Z,101359.66
2022-10-19T16:47:46.630Z,101364.53
2022-10-19T16:50:15.225Z,101364.44
2022-10-19T16:52:45.446Z,101360.80
2022-10-19T16:55:14.333Z,101367.08
2022-10-19T16:57:45.008Z,101366.84
2022-10-19T17:00:17.912Z,101371.45
2022-10-19T17:02:47.863Z,101375.45
2022-10-19T17:05:17.468Z,101375.08
2022-10-19T17:07:46.044Z,101380.09
2022-10-19T17:10:16.271Z,101385.11
2022-10-19T17:12:44.876Z,101392.14
2022-10-19T17:18:02.662Z,101397.98
2022-10-19T17:20:33.023Z,101395.95
2022-10-19T17:23:04.303Z,101400.63
2022-10-19T17:25:32.745Z,101404.89
2022-10-19T17:28:01.278Z,101406.31
2022-10-19T17:30:29.691Z,101411.90
2022-10-19T17:32:58.094Z,101422.71
2022-10-19T17:35:26.762Z,101421.83
2022-10-19T17:37:55.375Z,101423.83
2022-10-19T17:40:23.810Z,101426.57
2022-10-19T17:42:52.329Z,101428.13
2022-10-19T17:45:20.715Z,101429.10
2022-10-19T17:47:49.138Z,101432.09
2022-10-19T17:50:17.880Z,101436.71
2022-10-19T17:52:46.523Z,101437.95
2022-10-19T17:55:15.203Z,101445.55
2022-10-19T17:57:44.505Z,101441.29
2022-10-19T18:00:17.672Z,101442.38
2022-10-19T18:02:47.081Z,101443.02
2022-10-19T18:05:16.712Z,101443.02
2022-10-19T18:07:45.503Z,101448.29
2022-10-19T18:10:17.831Z,101451.52
2022-10-19T18:12:49.117Z,101449.30
2022-10-19T18:15:18.538Z,101453.96
2022-10-19T18:17:57.156Z,101457.14
2022-10-19T18:20:28.194Z,101458.96
2022-10-19T18:22:57.020Z,101464.80
2022-10-19T18:25:42.168Z,101460.09
2022-10-19T18:28:14.467Z,101462.11
2022-10-19T18:30:45.138Z,101462.73
2022-10-19T18:33:16.511Z,101463.02
2022-10-19T18:35:45.260Z,101460.54
2022-10-19T18:38:13.881Z,101458.60
2022-10-19T18:40:42.802Z,101458.67
2022-10-19T18:43:11.154Z,101457.98
2022-10-19T18:45:39.519Z,101462.52
2022-10-19T18:48:08.731Z,101463.51
2022-10-19T18:50:42.473Z,101468.01
2022-10-19T18:53:11.166Z,101470.28
2022-10-19T18:55:39.637Z,101471.62
2022-10-19T18:58:08.503Z,101470.48
2022-10-19T19:00:43.441Z,101474.30
2022-10-19T19:03:18.270Z,101478.56
2022-10-19T19:05:49.540Z,101480.72
2022-10-19T19:08:18.576Z,101482.70
2022-10-19T19:10:48.022Z,101482.82
2022-10-19T19:13:17.040Z,101488.38
2022-10-19T19:15:45.890Z,101491.41
2022-10-19T19:18:14.926Z,101492.10
2022-10-19T19:20:44.470Z,101496.52
2022-10-19T19:23:14.359Z,101497.21
2022-10-19T19:25:42.979Z,101499.95
2022-10-19T19:28:11.361Z,101505.20
2022-10-19T19:30:42.897Z,101509.18
2022-10-19T19:33:14.241Z,101510.21
2022-10-19T19:35:47.588Z,101512.20
2022-10-19T19:38:16.485Z,101515.66
2022-10-19T19:40:46.750Z,101519.59
2022-10-19T19:43:17.339Z,101521.78
2022-10-19T19:45:57.369Z,101527.12
2022-10-19T19:48:26.706Z,101531.40
2022-10-19T19:50:56.086Z,101535.34
2022-10-19T19:53:27.746Z,101539.00
2022-10-19T19:55:56.696Z,101538.65
2022-10-19T19:58:26.426Z,101547.46
2022-10-19T20:00:55.271Z,101547.35
2022-10-19T20:03:26.097Z,101547.70
2022-10-19T20:06:02.782Z,101548.96
2022-10-19T20:08:32.266Z,101554.41
2022-10-19T20:11:04.203Z,101558.41
2022-10-19T20:13:33.398Z,101560.52
2022-10-19T20:16:09.641Z,101568.56
2022-10-19T20:18:38.896Z,101568.52
2022-10-19T20:21:07.481Z,101570.52
2022-10-19T20:23:36.359Z,101571.57
2022-10-19T20:26:08.584Z,101571.30
2022-10-19T20:28:37.131Z,101573.66
2022-10-19T20:31:08.475Z,101576.79
2022-10-19T20:33:39.176Z,101583.67
2022-10-19T20:36:09.637Z,101591.27
2022-10-19T20:38:39.137Z,101589.80
2022-10-19T20:41:09.176Z,101596.85
2022-10-19T20:43:40.681Z,101597.84
2022-10-19T20:46:17.774Z,101601.48
2022-10-19T20:48:46.911Z,101600.17
2022-10-19T20:51:16.973Z,101599.95
2022-10-19T20:53:47.939Z,101601.56
2022-10-19T20:56:18.133Z,101601.56
2022-10-19T20:58:46.642Z,101602.83
2022-10-19T21:01:24.322Z,101601.13
2022-10-19T21:03:55.001Z,101600.95
2022-10-19T21:06:25.752Z,101599.02
2022-10-19T21:08:54.778Z,101601.01
2022-10-19T21:11:26.323Z,101605.25
2022-10-19T21:13:56.695Z,101602.60
2022-10-19T21:16:32.991Z,101607.73
2022-10-19T21:19:07.414Z,101608.34
2022-10-19T21:21:41.642Z,101612.79
2022-10-19T21:24:13.847Z,101610.52
2022-10-19T21:26:42.789Z,101615.48
2022-10-19T21:29:13.967Z,101612.84
2022-10-19T21:31:49.115Z,101616.75
2022-10-19T21:34:21.442Z,101621.13
2022-10-19T21:36:51.027Z,101623.33
2022-10-19T21:39:22.942Z,101626.80
2022-10-19T21:41:52.824Z,101624.02
2022-10-19T21:44:25.570Z,101622.41
2022-10-19T21:46:54.182Z,101623.53
2022-10-19T21:49:22.932Z,101619.60
2022-10-19T21:51:53.786Z,101620.47
2022-10-19T21:54:25.014Z,101620.08
2022-10-19T21:56:55.225Z,101619.46
2022-10-19T21:59:24.192Z,101620.25
2022-10-19T22:01:53.989Z,101622.77
2022-10-19T22:04:24.327Z,101617.36
2022-10-19T22:06:52.831Z,101616.38
2022-10-19T22:09:23.175Z,101613.52
2022-10-19T22:11:51.774Z,101618.44
2022-10-19T22:14:20.488Z,101622.31
2022-10-19T22:16:49.559Z,101622.98
2022-10-19T22:19:20.943Z,101622.69
2022-10-19T22:21:49.874Z,101624.65
2022-10-19T22:24:18.355Z,101627.60
2022-10-19T22:26:50.209Z,101625.64
2022-10-19T22:29:18.911Z,101630.42
2022-10-19T22:31:47.243Z,101630.95
2022-10-19T22:34:18.259Z,101637.31
2022-10-19T22:36:50.476Z,101643.52
2022-10-19T22:39:19.602Z,101644.73
2022-10-19T22:42:42.635Z,101651.69
2022-10-19T22:45:11.819Z,101652.85
2022-10-19T22:47:40.572Z,101654.77
2022-10-19T22:50:12.015Z,101657.83
2022-10-19T22:52:46.182Z,101659.98
2022-10-19T22:55:14.290Z,101653.85
2022-10-19T22:57:42.939Z,101658.83
2022-10-19T23:00:13.294Z,101658.78
2022-10-19T23:02:41.667Z,101657.52
2022-10-19T23:05:10.718Z,101664.30
2022-10-19T23:07:39.220Z,101667.44
2022-10-19T23:10:08.970Z,101667.02
2022-10-19T23:12:38.267Z,101663.77
2022-10-19T23:15:09.134Z,101667.64
2022-10-19T23:17:37.972Z,101673.23
2022-10-19T23:20:08.938Z,101676.83
2022-10-19T23:22:37.200Z,101675.70
2022-10-19T23:25:09.715Z,101678.40
2022-10-19T23:27:38.706Z,101676.31
2022-10-19T23:30:09.128Z,101675.94
2022-10-19T23:32:37.452Z,101675.73
2022-10-19T23:35:10.441Z,101679.77
2022-10-19T23:37:39.004Z,101692.97
2022-10-19T23:40:09.844Z,101694.70
2022-10-19T23:42:38.287Z,101698.30
2022-10-19T23:45:08.589Z,101703.70
2022-10-19T23:47:37.441Z,101712.17
2022-10-19T23:50:08.269Z,101711.13
2022-10-19T23:52:36.707Z,101719.73
2022-10-19T23:55:09.654Z,101721.44
2022-10-19T23:57:38.257Z,101720.84
